Time;durP1;ratioP1;P1;durP2;ratioP2;P2;SDS_P1;SDS_P2;PMS_P1;PMS_P2;Temp;Humidity;BMP_temperature;BMP_pressure;BME280_temperature;BME280_humidity;BME280_pressure;Samples;Min_cycle;Max_cycle;Signal;HPM_P1;HPM_P2
2021/12/02 00:01:44;;;;;;;15.10;14.57;;;19.70;68.60;;;;;;5034508;28;20926;-57
2021/12/02 00:04:11;;;;;;;14.43;13.83;;;19.60;68.60;;;;;;5034504;28;20829;-59
2021/12/02 00:06:39;;;;;;;13.50;13.10;;;19.60;69.10;;;;;;5034541;28;20480;-53
2021/12/02 00:09:05;;;;;;;13.30;12.90;;;19.50;69.70;;;;;;5034250;28;20453;-54
2021/12/02 00:11:34;;;;;;;14.30;13.90;;;19.50;70.10;;;;;;5034182;28;20456;-56
2021/12/02 00:14:07;;;;;;;14.40;13.90;;;19.40;70.60;;;;;;5034380;28;20475;-54
2021/12/02 00:16:37;;;;;;;13.87;13.47;;;19.30;70.40;;;;;;5034620;28;20441;-54
2021/12/02 00:21:50;;;;;;;14.87;14.37;;;19.20;71.80;;;;;;5000961;28;20995;-53
2021/12/02 00:24:19;;;;;;;14.53;14.13;;;19.10;72.50;;;;;;5034176;28;20496;-58
2021/12/02 00:26:49;;;;;;;14.23;13.83;;;19.00;73.20;;;;;;5034308;28;20568;-51
2021/12/02 00:29:20;;;;;;;14.13;13.67;;;19.00;73.90;;;;;;5034004;28;20511;-58
2021/12/02 00:31:48;;;;;;;13.80;13.40;;;18.90;74.50;;;;;;5034043;28;20935;-56
2021/12/02 00:34:16;;;;;;;14.63;14.13;;;18.90;74.90;;;;;;5033974;28;20472;-58
2021/12/02 00:36:43;;;;;;;15.27;14.77;;;18.80;75.40;;;;;;5034104;28;20448;-52
2021/12/02 00:39:11;;;;;;;14.47;14.00;;;18.80;75.50;;;;;;5033608;28;20484;-57
2021/12/02 00:41:38;;;;;;;14.43;13.97;;;18.70;76.20;;;;;;5033488;28;20854;-58
2021/12/02 00:44:08;;;;;;;14.53;14.03;;;18.80;77.20;;;;;;5033855;28;20837;-57
2021/12/02 00:46:35;;;;;;;14.40;14.00;;;18.70;76.70;;;;;;5033586;28;20520;-53
2021/12/02 00:49:06;;;;;;;14.70;14.30;;;18.70;77.60;;;;;;5033903;28;20522;-60
2021/12/02 00:51:34;;;;;;;14.70;14.20;;;18.70;78.30;;;;;;5033706;28;20502;-57
2021/12/02 00:54:03;;;;;;;14.40;13.90;;;18.70;78.70;;;;;;5034019;28;20477;-57
2021/12/02 00:56:30;;;;;;;14.90;14.30;;;18.70;79.20;;;;;;5033443;28;20448;-59
2021/12/02 00:58:57;;;;;;;14.87;14.33;;;18.70;80.10;;;;;;5033724;28;20825;-55
2021/12/02 01:01:27;;;;;;;13.90;13.50;;;18.70;80.30;;;;;;5033592;28;20862;-60
2021/12/02 01:03:58;;;;;;;15.27;14.77;;;18.60;80.60;;;;;;5033447;28;20469;-62
2021/12/02 01:06:25;;;;;;;14.47;13.87;;;18.60;80.80;;;;;;5033238;28;20842;-62
2021/12/02 01:08:52;;;;;;;15.60;15.00;;;18.50;81.80;;;;;;5033516;28;20449;-63
2021/12/02 01:11:19;;;;;;;14.20;13.80;;;18.50;82.00;;;;;;5033407;28;20441;-62
2021/12/02 01:13:46;;;;;;;14.10;13.70;;;18.50;83.10;;;;;;5033147;28;20469;-62
2021/12/02 01:16:14;;;;;;;14.80;14.30;;;18.50;83.50;;;;;;5033162;28;20471;-62
2021/12/02 01:18:42;;;;;;;14.60;14.10;;;18.50;83.50;;;;;;5033250;28;20449;-61
2021/12/02 01:21:14;;;;;;;14.53;14.03;;;18.40;84.20;;;;;;5033192;28;20931;-61
2021/12/02 01:23:41;;;;;;;14.33;13.80;;;18.40;84.30;;;;;;5032881;28;20468;-62
2021/12/02 01:26:09;;;;;;;15.00;14.40;;;18.40;84.30;;;;;;5032807;28;20473;-61
2021/12/02 01:28:39;;;;;;;14.63;14.13;;;18.40;85.10;;;;;;5032968;28;20456;-62
2021/12/02 01:31:06;;;;;;;14.80;14.30;;;18.40;85.30;;;;;;5033052;28;20503;-61
2021/12/02 01:33:35;;;;;;;14.10;13.70;;;18.40;85.20;;;;;;5032723;28;20797;-62
2021/12/02 01:36:05;;;;;;;13.20;12.90;;;18.30;86.00;;;;;;5032560;28;20453;-63
2021/12/02 01:38:33;;;;;;;14.40;14.00;;;18.30;87.40;;;;;;5032789;28;20481;-64
2021/12/02 01:41:02;;;;;;;14.00;13.60;;;18.20;88.50;;;;;;5032585;28;20461;-62
2021/12/02 01:43:44;;;;;;;13.97;13.57;;;18.20;88.70;;;;;;5032679;28;20992;-62
2021/12/02 01:46:11;;;;;;;14.20;13.80;;;18.10;89.40;;;;;;5032472;28;20480;-61
2021/12/02 01:48:41;;;;;;;15.10;14.60;;;18.10;90.10;;;;;;5032560;28;20453;-63
2021/12/02 01:51:11;;;;;;;14.10;13.70;;;18.10;90.40;;;;;;5032556;28;20492;-61
2021/12/02 01:53:40;;;;;;;15.17;14.50;;;18.10;90.80;;;;;;5031513;28;20477;-61
2021/12/02 01:56:11;;;;;;;14.20;13.80;;;18.10;90.90;;;;;;5032339;28;20811;-62
2021/12/02 01:58:43;;;;;;;13.77;13.37;;;18.00;90.90;;;;;;5032478;28;20510;-62
2021/12/02 02:01:16;;;;;;;14.37;13.87;;;18.10;91.40;;;;;;5032509;28;20449;-61
2021/12/02 02:03:43;;;;;;;14.20;13.80;;;18.10;91.50;;;;;;5032110;28;20475;-61
2021/12/02 02:06:16;;;;;;;14.20;13.80;;;18.00;91.80;;;;;;5031890;28;20819;-62
2021/12/02 02:08:47;;;;;;;14.03;13.53;;;18.00;92.20;;;;;;5032384;28;20445;-62
2021/12/02 02:11:14;;;;;;;14.03;13.63;;;17.90;92.40;;;;;;5032370;28;20445;-62
2021/12/02 02:13:42;;;;;;;14.20;13.80;;;17.90;92.70;;;;;;5031924;28;20469;-62
2021/12/02 02:16:09;;;;;;;14.10;13.70;;;17.90;92.70;;;;;;5032094;28;20532;-62
2021/12/02 02:18:37;;;;;;;14.43;13.93;;;17.90;93.00;;;;;;5032110;28;20457;-60
2021/12/02 02:21:08;;;;;;;14.00;13.60;;;17.90;93.20;;;;;;5031842;28;20449;-61
2021/12/02 02:23:40;;;;;;;15.00;14.50;;;17.80;93.40;;;;;;5028567;28;20500;-61
2021/12/02 02:26:08;;;;;;;14.60;14.10;;;17.80;93.60;;;;;;5032095;28;20990;-62
2021/12/02 02:28:35;;;;;;;14.63;14.13;;;17.80;93.70;;;;;;5031911;28;20479;-62
2021/12/02 02:31:03;;;;;;;14.47;13.97;;;17.80;93.90;;;;;;5031808;28;20477;-60
2021/12/02 02:33:36;;;;;;;14.50;14.10;;;17.80;94.00;;;;;;5011919;28;20454;-62
2021/12/02 02:36:03;;;;;;;14.60;14.03;;;17.80;94.30;;;;;;5018301;28;21101;-62
2021/12/02 02:38:31;;;;;;;14.23;13.83;;;17.80;94.50;;;;;;5031899;28;20445;-62
2021/12/02 02:41:00;;;;;;;14.33;13.83;;;17.80;94.70;;;;;;5031731;28;20445;-61
2021/12/02 02:43:27;;;;;;;14.10;13.70;;;17.80;94.70;;;;;;5031347;28;20831;-61
2021/12/02 02:45:54;;;;;;;14.63;14.13;;;17.80;94.90;;;;;;5031460;28;20480;-63
2021/12/02 02:48:21;;;;;;;14.30;13.90;;;17.80;94.80;;;;;;5031795;28;20506;-60
2021/12/02 02:50:48;;;;;;;14.20;13.80;;;17.80;95.10;;;;;;5031589;28;20953;-61
2021/12/02 02:53:19;;;;;;;14.77;14.27;;;17.80;95.10;;;;;;5030949;28;20453;-62
2021/12/02 02:55:55;;;;;;;14.93;14.43;;;17.80;94.90;;;;;;5031581;28;20934;-62
2021/12/02 02:58:29;;;;;;;15.27;14.57;;;17.80;95.20;;;;;;5031545;28;20559;-62
2021/12/02 03:01:03;;;;;;;14.50;14.10;;;17.70;95.20;;;;;;5031574;28;20467;-61
2021/12/02 03:03:39;;;;;;;14.80;14.30;;;17.70;95.60;;;;;;5030987;28;20869;-62
2021/12/02 03:08:52;;;;;;;14.30;13.90;;;17.70;95.70;;;;;;5028827;28;20433;-61
2021/12/02 03:11:22;;;;;;;14.13;13.73;;;17.60;95.40;;;;;;5031241;28;20500;-60
2021/12/02 03:13:51;;;;;;;15.00;14.40;;;17.60;96.00;;;;;;5031180;28;20903;-60
2021/12/02 03:19:03;;;;;;;15.83;15.23;;;17.60;96.40;;;;;;5031445;28;20420;-62
2021/12/02 03:21:29;;;;;;;14.57;13.97;;;17.60;95.10;;;;;;5030993;28;20886;-62
2021/12/02 03:23:58;;;;;;;14.47;14.07;;;17.50;95.20;;;;;;5031184;28;20472;-61
2021/12/02 03:26:27;;;;;;;13.80;13.30;;;17.60;95.90;;;;;;5031263;28;20481;-60
2021/12/02 03:28:55;;;;;;;14.10;13.70;;;17.60;96.20;;;;;;5031274;28;20440;-62
2021/12/02 03:31:22;;;;;;;14.30;13.90;;;17.50;96.20;;;;;;5031077;28;20784;-63
2021/12/02 03:33:50;;;;;;;15.47;14.97;;;17.60;96.50;;;;;;5030980;28;20473;-63
2021/12/02 03:36:18;;;;;;;14.67;14.17;;;17.50;96.80;;;;;;5031202;28;20448;-63
2021/12/02 03:38:46;;;;;;;14.43;13.93;;;17.50;97.10;;;;;;5031248;28;20450;-63
2021/12/02 03:41:13;;;;;;;14.33;13.90;;;17.50;97.10;;;;;;5031189;28;20453;-62
2021/12/02 03:43:43;;;;;;;14.50;14.00;;;17.50;97.20;;;;;;5030724;28;20469;-63
2021/12/02 03:46:11;;;;;;;14.80;14.20;;;17.50;96.90;;;;;;5030954;28;20836;-62
2021/12/02 03:48:38;;;;;;;14.00;13.50;;;17.50;97.00;;;;;;5030972;28;20441;-60
2021/12/02 03:51:05;;;;;;;14.43;14.03;;;17.50;97.40;;;;;;5031087;28;20441;-61
2021/12/02 03:53:32;;;;;;;15.00;14.53;;;17.50;97.40;;;;;;5030326;28;20484;-62
2021/12/02 03:56:00;;;;;;;14.30;13.80;;;17.50;97.70;;;;;;5031041;28;20476;-58
2021/12/02 03:58:27;;;;;;;14.97;14.47;;;17.50;97.70;;;;;;5030987;28;20985;-61
2021/12/02 04:00:55;;;;;;;14.97;14.20;;;17.50;97.00;;;;;;5030972;28;20448;-60
2021/12/02 04:03:22;;;;;;;14.10;13.70;;;17.50;97.50;;;;;;5030353;28;20469;-59
2021/12/02 04:05:49;;;;;;;14.80;14.30;;;17.50;97.40;;;;;;5030890;28;20452;-58
2021/12/02 04:08:16;;;;;;;14.70;14.20;;;17.60;97.40;;;;;;5030824;28;21029;-59
2021/12/02 04:10:44;;;;;;;14.27;13.80;;;17.50;97.00;;;;;;5030861;28;20457;-61
2021/12/02 04:13:16;;;;;;;14.20;13.80;;;17.50;97.40;;;;;;5030346;28;20480;-60
2021/12/02 04:15:49;;;;;;;14.10;13.70;;;17.50;97.70;;;;;;5030912;28;20452;-61
2021/12/02 04:18:17;;;;;;;13.60;13.20;;;17.40;97.60;;;;;;5033298;28;20558;-58
2021/12/02 04:20:44;;;;;;;13.13;12.73;;;17.40;97.60;;;;;;5034484;28;20480;-61
2021/12/02 04:23:11;;;;;;;13.53;13.13;;;17.40;97.60;;;;;;5033835;28;20456;-61
2021/12/02 04:25:37;;;;;;;13.70;13.10;;;17.40;98.00;;;;;;5034212;28;20449;-59
2021/12/02 04:28:04;;;;;;;13.27;12.87;;;17.40;98.00;;;;;;5034237;28;20484;-57
2021/12/02 04:30:31;;;;;;;12.53;12.10;;;17.50;98.30;;;;;;5034233;28;20946;-59
2021/12/02 04:32:58;;;;;;;12.20;11.80;;;17.50;98.10;;;;;;5033723;28;20449;-59
2021/12/02 04:35:26;;;;;;;12.03;11.73;;;17.50;98.30;;;;;;5033963;28;20993;-58
2021/12/02 04:37:52;;;;;;;13.50;13.10;;;17.50;98.10;;;;;;5034148;28;20445;-60
2021/12/02 04:40:21;;;;;;;14.20;13.70;;;17.50;98.10;;;;;;5033990;28;20450;-60
2021/12/02 04:42:49;;;;;;;13.10;12.70;;;17.40;97.90;;;;;;5033510;28;20997;-58
2021/12/02 04:45:16;;;;;;;13.73;13.33;;;17.40;98.20;;;;;;5033922;28;20831;-61
2021/12/02 04:47:43;;;;;;;13.13;12.83;;;17.40;98.40;;;;;;5033497;28;20480;-60
2021/12/02 04:50:11;;;;;;;13.10;12.70;;;17.30;98.50;;;;;;5033840;28;20950;-59
2021/12/02 04:52:39;;;;;;;13.43;12.87;;;17.40;98.90;;;;;;5033142;28;20448;-60
2021/12/02 04:55:08;;;;;;;13.00;12.60;;;17.40;98.40;;;;;;5033567;28;20473;-60
2021/12/02 04:57:34;;;;;;;13.20;12.80;;;17.40;98.40;;;;;;5033757;28;20433;-59
2021/12/02 05:00:01;;;;;;;13.50;13.10;;;17.40;98.20;;;;;;5033685;28;20437;-60
2021/12/02 05:02:28;;;;;;;13.40;13.00;;;17.40;98.40;;;;;;5033134;28;20452;-59
2021/12/02 05:04:55;;;;;;;14.10;13.40;;;17.40;98.30;;;;;;5033552;28;20464;-58
2021/12/02 05:07:21;;;;;;;14.13;13.73;;;17.40;98.50;;;;;;5033532;28;20488;-57
2021/12/02 05:09:49;;;;;;;13.40;13.00;;;17.40;98.70;;;;;;5033324;28;20452;-61
2021/12/02 05:12:16;;;;;;;13.50;13.10;;;17.40;98.50;;;;;;5013412;28;20446;-60
2021/12/02 05:14:43;;;;;;;14.70;14.30;;;17.40;98.30;;;;;;5013554;28;20474;-59
2021/12/02 05:17:10;;;;;;;14.53;14.03;;;17.40;98.70;;;;;;5013593;28;20449;-58
2021/12/02 05:19:36;;;;;;;14.50;14.10;;;17.30;98.70;;;;;;5020773;28;20953;-60
2021/12/02 05:22:03;;;;;;;14.50;14.10;;;17.40;99.00;;;;;;5032993;28;20445;-58
2021/12/02 05:24:30;;;;;;;13.90;13.50;;;17.40;98.90;;;;;;5033095;28;21013;-59
2021/12/02 05:26:58;;;;;;;14.27;13.87;;;17.40;98.40;;;;;;5033010;28;20473;-58
2021/12/02 05:29:25;;;;;;;15.27;14.77;;;17.40;98.70;;;;;;5031501;28;20928;-60
2021/12/02 05:31:52;;;;;;;14.67;14.17;;;17.40;98.70;;;;;;5032828;28;20448;-60
2021/12/02 05:34:18;;;;;;;15.50;14.90;;;17.40;98.60;;;;;;5032928;28;20825;-60
2021/12/02 05:36:45;;;;;;;14.50;14.00;;;17.30;98.90;;;;;;5032939;28;20449;-61
2021/12/02 05:39:12;;;;;;;15.00;14.60;;;17.40;98.70;;;;;;5032652;28;20445;-60
2021/12/02 05:41:39;;;;;;;14.63;14.17;;;17.30;99.00;;;;;;5032642;28;20449;-57
2021/12/02 05:44:07;;;;;;;15.20;14.77;;;17.40;99.00;;;;;;5032803;28;20746;-56
2021/12/02 05:46:34;;;;;;;14.40;14.00;;;17.40;98.90;;;;;;5032547;28;20810;-63
2021/12/02 05:49:01;;;;;;;15.23;14.73;;;17.60;99.00;;;;;;5032774;28;20821;-61
2021/12/02 05:51:27;;;;;;;14.07;13.67;;;17.80;99.90;;;;;;5032997;28;20457;-61
2021/12/02 05:53:54;;;;;;;15.40;14.90;;;18.30;98.40;;;;;;5032056;28;20485;-61
2021/12/02 05:56:21;;;;;;;14.50;14.00;;;18.60;96.10;;;;;;5032775;28;20498;-62
2021/12/02 05:58:47;;;;;;;14.23;13.80;;;18.90;95.00;;;;;;5032348;28;20445;-62
2021/12/02 06:01:15;;;;;;;14.57;14.10;;;19.10;94.10;;;;;;5032377;28;20494;-61
2021/12/02 06:03:42;;;;;;;15.00;14.60;;;19.20;93.60;;;;;;5032168;28;20476;-62
2021/12/02 06:06:09;;;;;;;14.93;14.43;;;19.30;92.30;;;;;;5032668;28;20449;-61
2021/12/02 06:08:37;;;;;;;15.10;14.50;;;19.40;91.00;;;;;;5032278;28;20485;-62
2021/12/02 06:11:04;;;;;;;14.97;14.57;;;19.50;90.70;;;;;;5032006;28;20449;-62
2021/12/02 06:13:31;;;;;;;15.40;14.90;;;19.60;90.00;;;;;;5032006;28;20469;-61
2021/12/02 06:15:57;;;;;;;15.30;14.80;;;19.60;89.10;;;;;;5032121;28;20799;-62
2021/12/02 06:18:25;;;;;;;14.83;14.30;;;19.60;88.20;;;;;;5032176;28;20441;-62
2021/12/02 06:20:54;;;;;;;14.70;14.30;;;19.60;86.90;;;;;;5032802;28;20449;-62
2021/12/02 06:23:20;;;;;;;15.10;14.70;;;19.70;86.70;;;;;;5032510;28;20452;-62
2021/12/02 06:25:48;;;;;;;15.10;14.60;;;19.70;85.40;;;;;;5032584;28;20449;-61
2021/12/02 06:28:15;;;;;;;15.13;14.63;;;19.80;84.90;;;;;;5032239;28;20538;-61
2021/12/02 06:30:42;;;;;;;16.73;16.03;;;19.80;84.50;;;;;;5032463;28;20446;-62
2021/12/02 06:33:10;;;;;;;15.27;14.77;;;19.70;82.50;;;;;;5032677;28;20445;-62
2021/12/02 06:35:38;;;;;;;14.90;14.50;;;19.80;83.20;;;;;;5032584;28;20437;-61
2021/12/02 06:38:05;;;;;;;15.53;15.03;;;19.80;82.20;;;;;;5031800;28;20449;-60
2021/12/02 06:40:34;;;;;;;15.73;15.23;;;19.80;82.00;;;;;;5031713;28;20818;-62
2021/12/02 06:43:01;;;;;;;15.13;14.73;;;19.80;81.10;;;;;;5031664;28;20514;-61
2021/12/02 06:45:28;;;;;;;15.20;14.70;;;19.90;81.10;;;;;;5031733;28;20520;-61
2021/12/02 06:47:58;;;;;;;15.47;14.97;;;19.90;80.30;;;;;;5031594;28;20472;-62
2021/12/02 06:50:26;;;;;;;15.97;15.37;;;19.80;79.50;;;;;;5031752;28;21066;-62
2021/12/02 06:52:54;;;;;;;15.20;14.70;;;19.90;79.60;;;;;;5031534;28;20445;-62
2021/12/02 06:55:22;;;;;;;15.83;15.23;;;19.90;79.60;;;;;;5072415;22;20499;-51
2021/12/02 06:57:49;;;;;;;14.53;14.13;;;19.90;79.20;;;;;;5034091;28;20441;-49
2021/12/02 07:00:19;;;;;;;14.60;14.20;;;20.00;78.80;;;;;;5033346;28;20448;-50
2021/12/02 07:02:46;;;;;;;15.27;14.80;;;20.00;77.50;;;;;;5032471;28;20453;-51
2021/12/02 07:05:16;;;;;;;15.60;15.10;;;19.90;76.70;;;;;;5031466;28;20469;-50
2021/12/02 07:07:43;;;;;;;13.50;12.90;;;19.90;76.90;;;;;;5031308;28;20484;-51
2021/12/02 07:10:13;;;;;;;13.50;13.10;;;19.90;76.80;;;;;;5031508;28;20483;-50
2021/12/02 07:12:42;;;;;;;13.77;13.37;;;19.80;76.60;;;;;;5031337;28;20542;-50
2021/12/02 07:15:14;;;;;;;13.73;13.33;;;19.80;76.20;;;;;;5031438;28;20473;-51
2021/12/02 07:17:40;;;;;;;14.17;13.77;;;19.60;76.50;;;;;;5031005;28;20445;-51
2021/12/02 07:20:08;;;;;;;13.80;13.40;;;19.40;77.50;;;;;;5031514;28;20445;-51
2021/12/02 07:22:35;;;;;;;13.67;13.27;;;19.30;77.70;;;;;;5031080;28;20818;-51
2021/12/02 07:25:02;;;;;;;13.70;13.30;;;19.20;77.20;;;;;;5031206;28;20468;-53
2021/12/02 07:27:30;;;;;;;13.97;13.50;;;19.10;76.00;;;;;;5031021;28;20842;-49
2021/12/02 07:29:57;;;;;;;13.80;13.40;;;19.10;77.50;;;;;;5031201;28;20445;-49
2021/12/02 07:32:26;;;;;;;13.00;12.70;;;19.00;77.80;;;;;;5031103;28;20449;-52
2021/12/02 07:34:57;;;;;;;13.03;12.70;;;18.90;76.00;;;;;;5029010;28;20523;-50
2021/12/02 07:37:24;;;;;;;13.70;13.20;;;18.90;78.30;;;;;;5019394;28;20456;-49
2021/12/02 07:39:51;;;;;;;13.60;13.20;;;18.90;79.20;;;;;;5019576;28;20453;-48
2021/12/02 07:42:18;;;;;;;13.80;13.40;;;19.00;80.90;;;;;;5018388;28;20922;-49
2021/12/02 07:44:47;;;;;;;14.10;13.60;;;19.10;82.10;;;;;;5019036;28;20469;-49
2021/12/02 07:47:14;;;;;;;13.97;13.47;;;19.50;82.80;;;;;;5019191;28;20882;-51
2021/12/02 07:49:42;;;;;;;13.00;12.70;;;19.70;81.50;;;;;;5019288;28;20441;-49
2021/12/02 07:52:09;;;;;;;13.03;12.63;;;20.00;81.10;;;;;;5019636;28;20460;-50
2021/12/02 07:54:40;;;;;;;14.00;13.50;;;20.60;79.90;;;;;;5022725;28;20484;-50
2021/12/02 07:57:10;;;;;;;14.07;13.67;;;21.40;77.60;;;;;;5022546;28;20989;-51
2021/12/02 07:59:38;;;;;;;13.87;13.47;;;21.80;73.70;;;;;;5020822;28;20461;-51
2021/12/02 08:02:06;;;;;;;13.63;13.23;;;21.60;70.50;;;;;;5018716;28;20460;-51
2021/12/02 08:04:33;;;;;;;14.70;14.20;;;21.60;72.00;;;;;;5022414;28;20819;-50
2021/12/02 08:07:00;;;;;;;13.50;13.20;;;21.90;70.80;;;;;;5022648;28;20479;-50
2021/12/02 08:09:27;;;;;;;13.70;13.30;;;22.10;69.10;;;;;;5022695;28;20844;-50
2021/12/02 08:11:58;;;;;;;14.27;13.87;;;22.10;68.30;;;;;;5022645;28;20492;-50
2021/12/02 08:14:25;;;;;;;14.67;14.10;;;22.20;67.50;;;;;;5022550;28;20483;-51
2021/12/02 08:16:52;;;;;;;15.20;14.80;;;22.20;66.00;;;;;;5022418;28;20959;-51
2021/12/02 08:19:20;;;;;;;14.70;14.30;;;22.10;65.60;;;;;;5022752;28;21001;-48
2021/12/02 08:21:47;;;;;;;14.67;14.17;;;22.30;66.40;;;;;;5022094;28;20461;-50
2021/12/02 08:24:14;;;;;;;15.20;14.80;;;22.80;67.20;;;;;;5022430;28;20815;-48
2021/12/02 08:26:41;;;;;;;15.17;14.77;;;23.00;66.20;;;;;;5022286;28;20465;-52
2021/12/02 08:29:07;;;;;;;15.17;14.77;;;23.10;65.00;;;;;;5022191;28;20481;-51
2021/12/02 08:31:34;;;;;;;15.50;15.00;;;23.10;63.80;;;;;;5022202;28;20451;-50
2021/12/02 08:34:02;;;;;;;15.67;15.10;;;23.10;63.30;;;;;;5021997;28;20478;-49
2021/12/02 08:36:41;;;;;;;16.13;15.53;;;23.10;62.70;;;;;;5022147;28;20484;-50
2021/12/02 08:39:10;;;;;;;14.17;13.77;;;23.00;63.10;;;;;;5021929;28;20816;-49
2021/12/02 08:41:43;;;;;;;14.30;13.80;;;23.00;62.40;;;;;;5022017;28;20453;-54
2021/12/02 08:44:10;;;;;;;15.23;14.70;;;23.10;62.00;;;;;;5022168;28;21081;-51
2021/12/02 08:46:37;;;;;;;14.10;13.70;;;23.50;61.60;;;;;;5022066;28;20528;-51
2021/12/02 08:49:04;;;;;;;15.47;14.87;;;23.60;60.50;;;;;;5021395;28;20933;-51
2021/12/02 08:51:32;;;;;;;14.80;14.30;;;23.60;59.70;;;;;;5021886;28;20449;-51
2021/12/02 08:53:59;;;;;;;15.33;14.87;;;23.60;59.70;;;;;;5021582;28;20488;-52
2021/12/02 08:56:26;;;;;;;15.27;14.87;;;23.50;59.40;;;;;;5021750;28;20930;-53
2021/12/02 08:58:55;;;;;;;16.00;15.50;;;23.60;59.60;;;;;;5021682;28;20448;-50
2021/12/02 09:01:22;;;;;;;14.60;14.20;;;23.60;59.80;;;;;;5021765;28;21020;-52
2021/12/02 09:03:49;;;;;;;15.37;14.70;;;23.50;59.70;;;;;;5020886;28;20448;-51
2021/12/02 09:06:21;;;;;;;14.30;13.80;;;23.40;60.10;;;;;;5021626;28;20460;-50
2021/12/02 09:08:50;;;;;;;15.07;14.50;;;23.50;60.30;;;;;;5021419;28;20858;-51
2021/12/02 09:11:18;;;;;;;15.63;14.70;;;23.90;60.70;;;;;;5021359;28;20497;-51
2021/12/02 09:13:44;;;;;;;15.80;15.20;;;24.20;59.50;;;;;;5021526;28;20449;-51
2021/12/02 09:16:11;;;;;;;15.93;15.50;;;24.20;58.40;;;;;;5021321;28;20457;-51
2021/12/02 09:18:38;;;;;;;15.30;14.80;;;24.20;58.20;;;;;;5020954;28;20781;-52
2021/12/02 09:21:05;;;;;;;15.20;14.70;;;24.20;58.00;;;;;;5021367;28;20452;-51
2021/12/02 09:23:32;;;;;;;15.63;15.23;;;24.20;57.60;;;;;;5021139;28;20456;-50
2021/12/02 09:26:00;;;;;;;15.70;15.20;;;24.10;57.80;;;;;;5020973;28;20825;-53
2021/12/02 09:28:27;;;;;;;15.33;14.83;;;24.10;58.00;;;;;;5021231;28;20523;-51
2021/12/02 09:30:54;;;;;;;15.40;14.90;;;24.10;58.00;;;;;;5021304;28;20457;-51
2021/12/02 09:33:21;;;;;;;14.83;14.43;;;24.40;57.90;;;;;;5021140;28;20514;-52
2021/12/02 09:35:48;;;;;;;14.63;14.23;;;24.60;57.80;;;;;;5020673;28;20858;-51
2021/12/02 09:38:15;;;;;;;15.50;14.90;;;24.70;56.60;;;;;;5020962;28;20530;-51
2021/12/02 09:40:44;;;;;;;14.60;14.20;;;24.70;56.60;;;;;;5020952;28;20495;-56
2021/12/02 09:43:14;;;;;;;15.47;14.80;;;24.60;56.50;;;;;;5020822;28;20480;-53
2021/12/02 09:45:41;;;;;;;15.00;14.50;;;24.60;56.30;;;;;;5020971;28;20481;-52
2021/12/02 09:48:09;;;;;;;15.23;14.73;;;24.50;56.20;;;;;;5020807;28;20480;-54
2021/12/02 09:50:39;;;;;;;15.70;15.30;;;24.60;56.10;;;;;;5020740;28;20453;-54
2021/12/02 09:53:09;;;;;;;14.93;14.53;;;24.60;56.00;;;;;;5020779;28;20791;-52
2021/12/02 09:55:44;;;;;;;16.10;15.60;;;24.60;56.10;;;;;;5020741;28;20520;-56
2021/12/02 09:58:19;;;;;;;15.43;15.03;;;24.80;56.00;;;;;;5020560;28;20448;-55
2021/12/02 10:00:49;;;;;;;16.30;15.70;;;25.20;55.20;;;;;;5020992;28;20526;-54
2021/12/02 10:03:22;;;;;;;15.90;15.37;;;25.20;54.50;;;;;;5020531;28;20910;-52
2021/12/02 10:06:00;;;;;;;15.10;14.70;;;25.10;54.10;;;;;;5020547;28;20496;-52
2021/12/02 10:08:31;;;;;;;16.23;15.73;;;25.10;53.70;;;;;;5020266;28;20620;-55
2021/12/02 10:11:00;;;;;;;15.57;14.97;;;25.10;53.70;;;;;;5020478;28;20455;-55
2021/12/02 10:13:36;;;;;;;14.77;14.37;;;25.00;54.20;;;;;;5020292;28;21160;-55
2021/12/02 10:16:19;;;;;;;15.43;14.93;;;24.90;54.50;;;;;;5020053;28;20961;-54
2021/12/02 10:19:01;;;;;;;16.50;15.90;;;24.90;54.20;;;;;;5020318;28;20444;-54
2021/12/02 10:21:31;;;;;;;15.90;15.40;;;24.90;53.90;;;;;;5020127;28;20556;-51
2021/12/02 10:24:05;;;;;;;14.70;14.30;;;25.20;53.90;;;;;;5020193;28;20980;-52
2021/12/02 10:26:36;;;;;;;15.20;14.70;;;25.40;53.30;;;;;;5020046;28;20463;-51
2021/12/02 10:29:10;;;;;;;16.10;15.50;;;25.40;52.80;;;;;;5019953;28;20575;-52
2021/12/02 10:31:38;;;;;;;16.47;15.90;;;25.50;52.70;;;;;;5020150;28;21043;-54
2021/12/02 10:34:07;;;;;;;15.90;15.40;;;25.50;52.70;;;;;;5019995;28;20469;-52
2021/12/02 10:36:36;;;;;;;14.90;14.50;;;25.50;52.90;;;;;;5020222;28;20886;-55
2021/12/02 10:39:10;;;;;;;15.10;14.47;;;25.50;53.10;;;;;;5019910;28;20445;-52
2021/12/02 10:41:41;;;;;;;15.40;14.90;;;25.30;52.90;;;;;;5019914;28;20456;-52
2021/12/02 10:44:13;;;;;;;15.40;15.00;;;25.40;53.70;;;;;;5019703;28;20480;-51
2021/12/02 10:46:43;;;;;;;14.70;14.27;;;25.70;53.60;;;;;;5019578;28;20452;-50
2021/12/02 10:49:16;;;;;;;15.30;14.90;;;25.80;53.20;;;;;;5019892;28;20900;-51
2021/12/02 10:51:46;;;;;;;14.90;14.50;;;25.80;53.00;;;;;;5019628;28;20449;-51
2021/12/02 10:54:16;;;;;;;14.55;14.05;;;25.80;52.40;;;;;;5019038;28;20448;-49
2021/12/02 10:56:46;;;;;;;15.10;14.70;;;25.80;53.00;;;;;;5019241;28;20224;-50
2021/12/02 10:59:47;;;;;;;15.17;14.57;;;25.60;53.40;;;;;;5019503;28;20544;-54
2021/12/02 11:02:20;;;;;;;16.10;15.60;;;25.50;53.60;;;;;;5019443;28;21034;-58
2021/12/02 11:04:50;;;;;;;15.80;15.30;;;25.40;54.20;;;;;;5019416;28;20555;-50
2021/12/02 11:07:22;;;;;;;15.33;14.83;;;25.30;53.80;;;;;;5019620;28;20890;-50
2021/12/02 11:09:51;;;;;;;15.20;14.80;;;25.40;54.70;;;;;;5019502;28;20496;-49
2021/12/02 11:12:21;;;;;;;16.70;16.17;;;25.70;54.30;;;;;;5019707;28;20457;-51
2021/12/02 11:15:02;;;;;;;15.90;15.40;;;25.80;53.40;;;;;;5019399;28;20562;-49
2021/12/02 11:17:31;;;;;;;15.90;15.40;;;25.90;53.00;;;;;;5019460;28;20456;-52
2021/12/02 11:20:00;;;;;;;15.23;14.73;;;25.80;53.00;;;;;;5019566;28;20453;-50
2021/12/02 11:22:28;;;;;;;15.53;15.03;;;25.80;52.20;;;;;;5019138;28;20452;-51
2021/12/02 11:24:56;;;;;;;15.30;14.87;;;25.80;52.40;;;;;;5019286;28;20469;-50
2021/12/02 11:27:25;;;;;;;15.50;15.10;;;25.60;52.70;;;;;;5022923;28;20978;-54
2021/12/02 11:29:55;;;;;;;15.90;15.40;;;25.60;52.70;;;;;;5020546;28;20488;-49
2021/12/02 11:32:30;;;;;;;14.70;14.10;;;25.50;52.50;;;;;;5020681;28;20445;-52
2021/12/02 11:35:03;;;;;;;15.27;14.77;;;25.50;52.60;;;;;;5022920;28;20563;-50
2021/12/02 11:37:32;;;;;;;14.67;14.17;;;26.10;52.50;;;;;;5012548;28;20861;-51
2021/12/02 11:40:04;;;;;;;14.07;13.57;;;26.10;51.60;;;;;;5023332;28;20559;-54
2021/12/02 11:42:32;;;;;;;14.18;13.68;;;26.10;51.40;;;;;;5005538;28;20455;-51
2021/12/02 11:44:59;;;;;;;16.03;15.50;;;26.10;51.40;;;;;;5003396;28;20284;-50
2021/12/02 11:47:27;;;;;;;15.70;15.13;;;26.00;51.60;;;;;;5003373;28;20449;-51
2021/12/02 11:49:54;;;;;;;13.80;13.40;;;25.90;51.80;;;;;;5003449;28;20516;-57
2021/12/02 11:52:21;;;;;;;14.43;14.03;;;25.70;51.50;;;;;;5002994;28;20446;-52
2021/12/02 11:54:48;;;;;;;14.40;14.00;;;25.70;51.70;;;;;;5020721;28;20838;-50
2021/12/02 11:57:15;;;;;;;15.83;15.43;;;25.70;51.60;;;;;;5022982;28;20456;-51
2021/12/02 11:59:42;;;;;;;13.50;12.90;;;25.90;51.10;;;;;;5022911;28;20839;-53
2021/12/02 12:02:10;;;;;;;16.77;16.27;;;26.00;48.70;;;;;;5022715;28;20444;-51
2021/12/02 12:04:39;;;;;;;14.20;13.80;;;25.90;49.70;;;;;;5022683;28;20472;-50
2021/12/02 12:07:11;;;;;;;15.73;15.20;;;26.10;49.50;;;;;;5022995;28;20581;-53
2021/12/02 12:09:38;;;;;;;14.57;14.17;;;26.00;50.00;;;;;;5022555;28;20839;-50
2021/12/02 12:12:06;;;;;;;15.90;15.50;;;25.90;50.10;;;;;;5022531;28;20452;-52
2021/12/02 12:14:37;;;;;;;15.80;15.30;;;25.80;49.90;;;;;;5022546;28;20473;-51
2021/12/02 12:17:06;;;;;;;16.60;15.90;;;25.80;50.00;;;;;;5022528;28;20999;-51
2021/12/02 12:19:41;;;;;;;15.90;15.20;;;25.70;50.20;;;;;;5022576;28;20441;-51
2021/12/02 12:22:13;;;;;;;15.53;15.03;;;25.80;50.50;;;;;;5022436;28;20444;-52
2021/12/02 12:24:47;;;;;;;15.30;14.90;;;26.00;50.10;;;;;;5022423;28;20468;-49
2021/12/02 12:27:16;;;;;;;16.13;15.40;;;26.40;49.70;;;;;;5022578;28;20548;-49
2021/12/02 12:29:44;;;;;;;15.83;15.33;;;26.50;49.20;;;;;;5017948;28;20763;-52
2021/12/02 12:32:23;;;;;;;16.13;15.63;;;26.40;48.70;;;;;;5002576;28;20980;-50
2021/12/02 12:34:58;;;;;;;16.10;15.53;;;26.40;48.80;;;;;;5002431;28;20475;-50
2021/12/02 12:37:48;;;;;;;15.00;14.50;;;26.50;48.80;;;;;;5019113;28;21086;-50
2021/12/02 12:40:19;;;;;;;15.77;15.27;;;26.40;48.60;;;;;;5022073;28;20544;-51
2021/12/02 12:42:48;;;;;;;14.80;14.40;;;26.40;48.40;;;;;;5021940;28;20483;-51
2021/12/02 12:45:26;;;;;;;15.20;14.80;;;26.30;48.50;;;;;;5022412;28;20852;-52